Time;durP1;ratioP1;P1;durP2;ratioP2;P2;SDS_P1;SDS_P2;PMS_P1;PMS_P2;Temp;Humidity;BMP_temperature;BMP_pressure;BME280_temperature;BME280_humidity;BME280_pressure;Samples;Min_cycle;Max_cycle;Signal;HPM_P1;HPM_P2
2023/11/19 00:02:41;;;;;;;7.03;5.57;;;8.90;38.70;;;;;;5070838;28;20238;-82
2023/11/19 00:08:29;;;;;;;7.90;5.17;;;9.10;38.80;;;;;;5078459;28;20987;-82
2023/11/19 00:18:08;;;;;;;9.00;5.30;;;8.90;38.70;;;;;;5078786;28;20855;-82
2023/11/19 00:21:09;;;;;;;8.53;5.87;;;8.90;38.70;;;;;;5061189;28;20409;-82
2023/11/19 00:30:19;;;;;;;10.53;5.43;;;8.90;43.20;;;;;;5071411;28;20730;-83
2023/11/19 00:36:32;;;;;;;15.23;6.57;;;9.00;46.80;;;;;;5078231;28;20249;-82
2023/11/19 00:39:15;;;;;;;9.40;6.20;;;;;;;;;;5077072;28;20453;-82
2023/11/19 00:41:50;;;;;;;8.40;5.37;;;9.00;47.40;;;;;;5073265;28;20441;-83
2023/11/19 00:48:00;;;;;;;10.27;6.50;;;9.00;48.60;;;;;;5091716;28;20408;-82
2023/11/19 00:50:45;;;;;;;10.83;5.23;;;9.00;47.70;;;;;;5077854;28;20413;-82
2023/11/19 00:53:33;;;;;;;12.33;6.30;;;9.00;47.60;;;;;;5077435;28;20417;-82
2023/11/19 00:56:17;;;;;;;9.77;6.20;;;;;;;;;;5066429;28;20546;-82
2023/11/19 01:05:28;;;;;;;14.73;5.80;;;9.20;45.80;;;;;;5075703;28;20423;-74
2023/11/19 01:07:54;;;;;;;12.13;6.03;;;9.10;44.40;;;;;;5075914;28;20440;-74
2023/11/19 01:10:21;;;;;;;9.33;5.90;;;9.10;40.00;;;;;;5076599;28;20420;-74
2023/11/19 01:12:51;;;;;;;9.13;5.83;;;9.10;44.30;;;;;;5079968;28;20439;-74
2023/11/19 01:15:18;;;;;;;8.57;5.00;;;9.20;39.20;;;;;;5084303;28;21022;-74
2023/11/19 01:17:57;;;;;;;9.37;6.27;;;9.20;39.00;;;;;;5091887;28;20405;-74
2023/11/19 01:20:23;;;;;;;8.20;5.60;;;9.20;39.00;;;;;;5083737;28;20419;-74
2023/11/19 01:22:50;;;;;;;9.77;5.97;;;9.20;38.90;;;;;;5096050;28;20400;-74
2023/11/19 01:25:26;;;;;;;8.90;5.73;;;9.30;39.00;;;;;;5080320;28;20456;-74
2023/11/19 01:27:52;;;;;;;6.70;5.37;;;9.40;39.10;;;;;;5073659;28;20417;-74
2023/11/19 01:30:19;;;;;;;8.77;5.87;;;;;;;;;;5084378;28;20520;-74
2023/11/19 01:32:45;;;;;;;8.60;5.30;;;9.40;39.10;;;;;;5083184;28;20262;-74
2023/11/19 01:35:11;;;;;;;7.60;5.27;;;9.30;39.20;;;;;;5085205;28;20570;-74
2023/11/19 01:37:39;;;;;;;6.20;4.77;;;;;;;;;;5084217;28;20591;-82
2023/11/19 01:40:06;;;;;;;7.13;4.80;;;9.40;39.10;;;;;;5085381;28;20175;-82
2023/11/19 01:49:17;;;;;;;5.20;4.17;;;9.50;39.30;;;;;;5079704;28;20834;-81
2023/11/19 01:51:43;;;;;;;6.00;4.30;;;9.60;39.30;;;;;;5076923;28;20481;-75
2023/11/19 01:54:10;;;;;;;7.13;4.70;;;9.50;39.20;;;;;;5080321;28;20439;-74
2023/11/19 01:56:36;;;;;;;7.30;4.20;;;;;;;;;;5074885;28;20515;-74
2023/11/19 01:59:03;;;;;;;9.33;4.90;;;9.50;39.20;;;;;;5061108;28;20521;-74
2023/11/19 02:01:45;;;;;;;6.53;4.10;;;;;;;;;;5088005;28;20416;-75
2023/11/19 02:04:15;;;;;;;4.07;3.63;;;9.40;39.20;;;;;;5070985;28;20428;-74
2023/11/19 02:07:17;;;;;;;5.40;3.83;;;9.40;41.80;;;;;;5075854;28;20753;-82
2023/11/19 02:10:12;;;;;;;6.73;4.73;;;9.60;44.50;;;;;;5074261;28;20928;-82
2023/11/19 02:16:03;;;;;;;6.80;4.20;;;;;;;;;;5057808;28;20480;-82
2023/11/19 02:19:10;;;;;;;6.40;4.50;;;9.50;45.10;;;;;;5075822;28;20409;-82
2023/11/19 02:25:04;;;;;;;5.33;3.50;;;9.60;49.10;;;;;;5079182;28;20484;-82
2023/11/19 02:34:14;;;;;;;5.53;3.77;;;;;;;;;;5090463;28;20387;-82
2023/11/19 02:36:47;;;;;;;15.13;5.30;;;9.70;48.20;;;;;;5083001;28;20461;-73
2023/11/19 02:39:13;;;;;;;5.60;4.17;;;9.70;46.70;;;;;;5089090;28;20420;-74
2023/11/19 02:41:45;;;;;;;4.20;3.60;;;9.70;48.60;;;;;;5073893;28;20783;-74
2023/11/19 02:44:11;;;;;;;5.30;3.90;;;;;;;;;;5087783;28;20665;-74
2023/11/19 02:46:37;;;;;;;4.80;3.40;;;;;;;;;;5074306;28;20414;-74
2023/11/19 02:49:03;;;;;;;5.43;3.80;;;;;;;;;;5074492;28;20805;-75
2023/11/19 02:54:51;;;;;;;5.13;3.37;;;9.80;50.10;;;;;;5081389;28;20460;-82
2023/11/19 02:57:19;;;;;;;3.30;3.00;;;9.70;51.70;;;;;;5082009;28;20464;-82
2023/11/19 03:13:50;;;;;;;10.10;3.83;;;9.80;55.50;;;;;;5068647;28;20388;-82
2023/11/19 03:23:20;;;;;;;3.87;3.00;;;9.90;56.40;;;;;;5089716;28;20411;-82
2023/11/19 03:26:33;;;;;;;3.20;2.90;;;9.90;55.90;;;;;;5092227;28;20478;-83
2023/11/19 03:29:44;;;;;;;4.80;3.57;;;9.90;58.00;;;;;;5075899;28;20432;-82
2023/11/19 03:36:26;;;;;;;3.07;2.70;;;9.90;58.80;;;;;;5074127;28;20469;-82
2023/11/19 03:39:03;;;;;;;4.77;3.37;;;9.90;62.40;;;;;;5074313;28;20395;-74
2023/11/19 03:41:33;;;;;;;3.43;3.13;;;9.90;63.10;;;;;;5071365;28;20412;-74
2023/11/19 03:43:59;;;;;;;5.33;3.40;;;;;;;;;;5065158;28;20433;-74
2023/11/19 03:46:38;;;;;;;3.87;3.47;;;10.00;58.70;;;;;;5082343;28;20415;-74
2023/11/19 03:49:09;;;;;;;5.90;3.20;;;10.10;58.80;;;;;;5090863;28;20429;-74
2023/11/19 03:51:37;;;;;;;4.80;3.67;;;10.10;57.50;;;;;;5084514;28;20976;-76
2023/11/19 03:54:15;;;;;;;4.20;3.77;;;;;;;;;;5086807;28;20433;-74
2023/11/19 03:56:41;;;;;;;3.80;3.40;;;;;;;;;;5073970;28;20472;-74
2023/11/19 03:59:09;;;;;;;3.77;3.47;;;10.10;54.70;;;;;;5071643;28;20422;-74
2023/11/19 04:01:39;;;;;;;3.77;3.37;;;10.20;55.40;;;;;;5067666;28;20428;-74
2023/11/19 04:04:04;;;;;;;3.57;2.97;;;10.20;54.50;;;;;;5060769;28;20405;-74
2023/11/19 04:06:30;;;;;;;3.67;3.27;;;;;;;;;;5076848;28;20440;-74
2023/11/19 04:09:09;;;;;;;4.17;2.83;;;10.20;54.90;;;;;;5076264;28;20544;-74
2023/11/19 04:11:36;;;;;;;7.90;3.50;;;10.20;55.00;;;;;;5073609;28;20421;-74
2023/11/19 04:14:20;;;;;;;3.50;3.20;;;10.20;57.00;;;;;;5066771;28;20487;-74
2023/11/19 04:16:46;;;;;;;2.73;2.50;;;10.20;58.10;;;;;;5085733;28;20510;-74
2023/11/19 04:19:12;;;;;;;4.43;3.03;;;10.30;57.70;;;;;;5075019;28;20823;-74
2023/11/19 04:21:41;;;;;;;2.90;2.70;;;10.30;55.70;;;;;;5073557;28;20184;-74
2023/11/19 04:24:15;;;;;;;2.70;2.50;;;;;;;;;;5086755;28;20196;-74
2023/11/19 04:26:45;;;;;;;5.47;4.00;;;10.30;56.20;;;;;;5078471;28;20425;-74
2023/11/19 04:29:17;;;;;;;6.30;2.67;;;10.30;54.90;;;;;;5073915;28;20421;-74
2023/11/19 04:31:45;;;;;;;3.40;3.10;;;10.30;58.10;;;;;;5089255;28;20428;-75
2023/11/19 04:34:27;;;;;;;6.40;2.73;;;10.30;60.90;;;;;;5077910;28;20431;-74
2023/11/19 04:40:14;;;;;;;3.70;2.63;;;10.20;63.80;;;;;;5065156;28;20441;-83
2023/11/19 04:46:04;;;;;;;4.50;2.50;;;10.30;69.00;;;;;;5076401;28;20237;-82
2023/11/19 04:49:14;;;;;;;3.67;3.13;;;10.30;69.20;;;;;;5066808;28;20836;-82
2023/11/19 04:52:14;;;;;;;4.80;3.23;;;10.40;68.00;;;;;;5080916;28;20475;-82
2023/11/19 04:54:45;;;;;;;4.97;3.70;;;10.30;65.20;;;;;;5066016;28;20827;-74
2023/11/19 04:57:12;;;;;;;5.40;3.27;;;;;;;;;;5073027;28;20561;-74
2023/11/19 04:59:39;;;;;;;6.53;3.10;;;10.30;66.90;;;;;;5077784;28;20434;-74
2023/11/19 05:02:26;;;;;;;3.60;3.13;;;10.30;66.80;;;;;;5075530;28;20439;-75
2023/11/19 05:04:57;;;;;;;5.50;3.17;;;10.30;69.10;;;;;;5073683;28;20393;-74
2023/11/19 05:10:53;;;;;;;3.57;3.10;;;10.40;68.10;;;;;;5057255;28;20959;-82
2023/11/19 05:13:50;;;;;;;6.77;3.70;;;10.30;70.50;;;;;;5073597;28;20424;-82
2023/11/19 05:16:56;;;;;;;7.33;2.97;;;10.20;76.30;;;;;;5091600;28;20444;-82
2023/11/19 05:19:33;;;;;;;8.60;3.13;;;10.30;78.80;;;;;;5070213;28;20432;-82
2023/11/19 05:22:32;;;;;;;3.30;3.00;;;10.30;78.50;;;;;;5081568;28;20418;-82
2023/11/19 05:24:58;;;;;;;3.67;2.50;;;10.30;81.20;;;;;;5079357;28;20403;-74
2023/11/19 05:27:27;;;;;;;3.47;3.17;;;10.40;80.90;;;;;;5084240;28;20423;-74
2023/11/19 05:30:07;;;;;;;3.27;2.83;;;10.40;83.00;;;;;;5091715;28;20310;-74
2023/11/19 05:32:51;;;;;;;3.47;2.93;;;10.40;81.80;;;;;;5084069;28;20511;-74
2023/11/19 05:35:21;;;;;;;3.30;2.90;;;10.40;80.80;;;;;;5065427;28;20449;-74
2023/11/19 05:37:57;;;;;;;7.00;3.87;;;10.40;81.50;;;;;;5090198;28;20966;-75
2023/11/19 05:40:27;;;;;;;7.83;4.23;;;10.30;81.10;;;;;;5085111;28;20474;-75
2023/11/19 05:43:16;;;;;;;5.30;3.80;;;10.40;83.80;;;;;;5081793;28;20421;-75
2023/11/19 05:45:42;;;;;;;4.80;4.30;;;10.50;82.70;;;;;;5083180;28;20504;-74
2023/11/19 05:48:38;;;;;;;4.00;3.60;;;10.50;82.50;;;;;;5094296;28;20788;-75
2023/11/19 05:51:21;;;;;;;5.73;3.90;;;10.50;81.30;;;;;;5063434;28;20426;-76
2023/11/19 05:53:51;;;;;;;5.33;4.10;;;10.50;77.40;;;;;;5084896;28;20444;-74
2023/11/19 05:56:21;;;;;;;6.00;4.40;;;10.50;78.50;;;;;;5096642;28;20892;-75
2023/11/19 05:58:57;;;;;;;5.10;4.47;;;10.40;79.10;;;;;;5088535;28;20444;-75
2023/11/19 06:01:34;;;;;;;6.53;5.17;;;10.50;79.70;;;;;;5082281;28;20428;-75
2023/11/19 06:04:03;;;;;;;4.93;4.23;;;10.50;80.00;;;;;;5095143;28;20420;-74
2023/11/19 06:06:50;;;;;;;7.80;3.93;;;10.50;80.60;;;;;;5084110;28;20432;-74
2023/11/19 06:09:27;;;;;;;8.90;4.20;;;10.50;80.60;;;;;;5075566;28;20440;-76
2023/11/19 06:11:57;;;;;;;4.17;3.43;;;10.50;82.80;;;;;;5076413;28;20774;-75
2023/11/19 06:14:27;;;;;;;6.07;3.70;;;10.50;83.60;;;;;;5066513;28;20462;-74
2023/11/19 06:17:14;;;;;;;4.37;3.30;;;10.50;86.50;;;;;;5091417;28;20510;-74
2023/11/19 06:19:40;;;;;;;7.13;3.73;;;10.60;86.00;;;;;;5078977;28;20913;-75
2023/11/19 06:22:06;;;;;;;5.60;3.10;;;10.60;86.40;;;;;;5070342;28;20501;-74
2023/11/19 06:24:32;;;;;;;4.57;3.77;;;10.60;87.50;;;;;;5090565;28;20531;-73
2023/11/19 06:27:04;;;;;;;5.57;3.60;;;10.60;89.60;;;;;;5096045;28;20404;-74
2023/11/19 06:32:51;;;;;;;7.13;3.47;;;10.70;89.80;;;;;;5087672;28;20395;-90
2023/11/19 06:38:39;;;;;;;5.80;3.20;;;;;;;;;;5074997;28;20432;-90
2023/11/19 06:41:21;;;;;;;3.90;3.27;;;;;;;;;;5072100;28;20427;-89
2023/11/19 06:43:51;;;;;;;12.00;3.80;;;;;;;;;;5073125;28;20483;-88
2023/11/19 06:46:21;;;;;;;3.30;3.00;;;10.80;86.90;;;;;;5071586;28;20977;-88
2023/11/19 06:48:58;;;;;;;3.90;3.03;;;;;;;;;;5075945;28;20394;-88
2023/11/19 06:51:27;;;;;;;4.10;3.43;;;10.80;85.70;;;;;;5091926;28;20425;-72
2023/11/19 06:54:03;;;;;;;4.00;2.90;;;10.90;86.20;;;;;;5082761;28;20955;-71
2023/11/19 06:56:29;;;;;;;4.17;3.40;;;;;;;;;;5074844;28;20810;-71
2023/11/19 06:58:54;;;;;;;12.97;4.70;;;10.90;90.10;;;;;;5090144;28;20474;-71
2023/11/19 07:01:20;;;;;;;4.30;3.00;;;;;;;;;;5081837;28;20424;-71
2023/11/19 07:03:51;;;;;;;13.60;4.00;;;11.00;91.70;;;;;;5075263;28;20182;-70
2023/11/19 07:06:17;;;;;;;5.17;3.37;;;11.10;91.70;;;;;;5072960;28;20615;-70
2023/11/19 07:09:11;;;;;;;3.20;2.90;;;;;;;;;;5073521;28;20494;-83
2023/11/19 07:11:40;;;;;;;2.60;2.40;;;11.10;90.40;;;;;;5074579;28;20440;-83
2023/11/19 07:14:09;;;;;;;3.23;2.90;;;11.10;91.50;;;;;;5064176;28;20900;-77
2023/11/19 07:19:59;;;;;;;6.10;3.23;;;11.10;92.40;;;;;;5079581;28;20419;-79
2023/11/19 07:25:47;;;;;;;7.10;3.40;;;;;;;;;;5074390;28;20470;-74
2023/11/19 07:28:21;;;;;;;4.80;3.27;;;11.30;93.90;;;;;;5074193;28;20774;-76
2023/11/19 07:30:57;;;;;;;4.00;3.40;;;11.30;92.60;;;;;;5086734;28;20975;-74
2023/11/19 07:33:56;;;;;;;4.83;3.47;;;11.40;92.40;;;;;;5094559;28;20392;-79
2023/11/19 07:36:22;;;;;;;18.07;4.83;;;;;;;;;;5074496;28;20543;-74
2023/11/19 07:38:51;;;;;;;3.83;3.13;;;;;;;;;;5083784;28;20439;-73
2023/11/19 07:41:17;;;;;;;4.00;3.60;;;11.50;89.40;;;;;;5079305;28;20447;-73
2023/11/19 07:43:52;;;;;;;5.13;3.90;;;11.50;86.20;;;;;;5085948;28;20447;-74
2023/11/19 07:46:21;;;;;;;7.93;3.70;;;11.50;86.70;;;;;;5068428;28;20191;-72
2023/11/19 07:48:47;;;;;;;12.67;4.00;;;11.50;86.00;;;;;;5074726;28;20476;-73
2023/11/19 07:51:13;;;;;;;5.13;2.90;;;;;;;;;;5086742;28;20814;-73
2023/11/19 07:53:40;;;;;;;4.83;3.13;;;11.60;88.70;;;;;;5076194;28;20465;-72
2023/11/19 07:56:15;;;;;;;3.13;2.83;;;11.60;90.00;;;;;;5082267;28;20459;-80
2023/11/19 07:58:41;;;;;;;4.10;2.87;;;;;;;;;;5086510;28;20451;-80
2023/11/19 08:07:52;;;;;;;13.13;4.10;;;;;;;;;;5064848;28;20791;-82
2023/11/19 08:10:19;;;;;;;3.83;3.50;;;;;;;;;;5073747;28;20468;-74
2023/11/19 08:12:45;;;;;;;7.90;3.77;;;12.20;88.60;;;;;;5073075;28;20496;-74
2023/11/19 08:15:11;;;;;;;6.33;4.27;;;;;;;;;;5074003;28;20552;-74
2023/11/19 08:17:37;;;;;;;4.80;3.70;;;12.40;82.50;;;;;;5084815;28;20487;-73
2023/11/19 08:20:04;;;;;;;4.70;3.97;;;12.60;74.00;;;;;;5085516;28;20443;-74
2023/11/19 08:22:39;;;;;;;4.27;3.50;;;12.70;62.00;;;;;;5089961;28;20413;-74
2023/11/19 08:25:05;;;;;;;4.50;3.60;;;12.70;54.30;;;;;;5084574;28;20435;-74
2023/11/19 08:27:32;;;;;;;6.77;4.40;;;;;;;;;;5076873;28;20442;-74
2023/11/19 08:29:58;;;;;;;5.70;3.80;;;;;;;;;;5073491;28;20439;-74
2023/11/19 08:32:27;;;;;;;6.13;4.30;;;13.40;41.70;;;;;;5073579;28;20386;-74
2023/11/19 08:35:03;;;;;;;5.60;3.57;;;13.70;42.00;;;;;;5093421;28;20440;-74
2023/11/19 08:37:36;;;;;;;6.77;3.73;;;14.00;34.30;;;;;;5067026;28;20444;-74
2023/11/19 08:43:56;;;;;;;4.63;2.90;;;14.10;13.30;;;;;;5079505;28;20492;-83
2023/11/19 08:46:22;;;;;;;3.93;3.17;;;14.10;9.40;;;;;;5066496;28;20445;-81
2023/11/19 08:52:10;;;;;;;7.40;2.50;;;;;;;;;;5077286;28;20189;-82
2023/11/19 08:54:42;;;;;;;3.40;2.43;;;13.80;15.10;;;;;;5073951;28;20446;-81
2023/11/19 08:57:08;;;;;;;4.90;2.63;;;13.90;13.20;;;;;;5088899;28;20475;-82
2023/11/19 09:03:15;;;;;;;1.93;1.83;;;14.00;12.60;;;;;;5088912;28;20402;-82
2023/11/19 09:05:51;;;;;;;2.37;2.17;;;;;;;;;;5090677;28;20448;-81
2023/11/19 09:08:27;;;;;;;3.00;2.70;;;13.90;12.30;;;;;;5088277;28;20409;-81
2023/11/19 09:10:52;;;;;;;4.53;2.77;;;13.90;11.80;;;;;;5078361;28;20558;-74
2023/11/19 09:13:19;;;;;;;2.30;2.20;;;;;;;;;;5073541;28;20507;-74
2023/11/19 09:15:45;;;;;;;2.50;2.30;;;14.00;17.90;;;;;;5088344;28;20202;-74
2023/11/19 09:18:11;;;;;;;8.77;2.50;;;;;;;;;;5079620;28;20767;-74
2023/11/19 09:20:39;;;;;;;11.03;3.30;;;14.10;18.00;;;;;;5074789;28;20468;-74
2023/11/19 09:23:06;;;;;;;9.43;2.20;;;14.10;17.20;;;;;;5077092;28;20813;-74
2023/11/19 09:25:32;;;;;;;2.70;2.20;;;13.70;19.20;;;;;;5082440;28;20467;-74
2023/11/19 09:27:57;;;;;;;2.60;1.80;;;13.70;20.70;;;;;;5082773;28;20406;-74
2023/11/19 09:30:23;;;;;;;3.23;1.83;;;13.80;19.60;;;;;;5083891;28;20174;-74
2023/11/19 09:32:49;;;;;;;6.37;2.43;;;;;;;;;;5082148;28;20185;-73
2023/11/19 09:35:16;;;;;;;6.37;1.70;;;;;;;;;;5084716;28;20182;-74
2023/11/19 09:37:51;;;;;;;2.20;1.87;;;13.50;21.60;;;;;;5079327;28;20794;-74
2023/11/19 09:41:09;;;;;;;3.00;1.30;;;13.40;26.70;;;;;;5078239;28;20426;-82
2023/11/19 09:47:03;;;;;;;53.73;7.33;;;;;;;;;;5066911;28;20420;-80
2023/11/19 09:50:14;;;;;;;8.20;2.30;;;13.40;37.80;;;;;;5075298;28;20409;-81
2023/11/19 09:56:04;;;;;;;5.50;1.57;;;13.50;35.40;;;;;;5080772;28;20853;-74
2023/11/19 09:58:40;;;;;;;2.60;1.47;;;13.50;31.10;;;;;;5090449;28;20443;-74
2023/11/19 10:01:15;;;;;;;3.57;1.60;;;13.50;29.90;;;;;;5087488;28;20779;-74
2023/11/19 10:03:57;;;;;;;4.37;1.77;;;13.40;27.00;;;;;;5089671;28;20424;-74
2023/11/19 10:06:28;;;;;;;7.57;1.70;;;;;;;;;;5075845;28;20707;-74
2023/11/19 10:08:55;;;;;;;4.40;1.93;;;;;;;;;;5086347;28;20860;-74
2023/11/19 10:11:21;;;;;;;3.03;1.40;;;13.30;28.00;;;;;;5076219;28;20472;-74
2023/11/19 10:13:48;;;;;;;9.17;2.50;;;;;;;;;;5080397;28;20512;-74
2023/11/19 10:16:14;;;;;;;1.60;1.50;;;;;;;;;;5078913;28;20456;-74
2023/11/19 10:18:51;;;;;;;2.70;1.67;;;13.30;18.10;;;;;;5080693;28;20398;-74
2023/11/19 10:21:33;;;;;;;3.70;1.63;;;13.30;15.60;;;;;;5076563;28;20459;-74
2023/11/19 10:24:00;;;;;;;4.47;1.57;;;13.30;8.80;;;;;;5085929;28;20405;-74
2023/11/19 10:26:50;;;;;;;6.63;1.37;;;13.40;7.70;;;;;;5096601;28;20405;-82
2023/11/19 10:29:23;;;;;;;4.20;1.50;;;13.50;2.60;;;;;;5079677;28;20431;-82
2023/11/19 10:32:26;;;;;;;4.60;1.40;;;13.60;1.00;;;;;;5086721;28;20432;-82
2023/11/19 10:35:12;;;;;;;7.63;1.57;;;13.80;1.00;;;;;;5089352;28;20417;-82
2023/11/19 10:41:32;;;;;;;7.07;1.83;;;14.00;1.00;;;;;;5077375;28;20913;-81
2023/11/19 10:44:03;;;;;;;8.93;1.43;;;;;;;;;;5067651;28;20510;-81
2023/11/19 10:46:40;;;;;;;4.20;1.30;;;;;;;;;;5098345;28;20529;-82
2023/11/19 10:55:50;;;;;;;5.43;1.47;;;;;;;;;;5071937;28;20548;-73
2023/11/19 10:58:22;;;;;;;5.27;1.70;;;14.50;1.00;;;;;;5073460;28;20738;-73
2023/11/19 11:00:53;;;;;;;7.13;1.40;;;14.60;1.00;;;;;;5087969;28;20432;-73
2023/11/19 11:03:25;;;;;;;512.87;195.30;;;14.60;1.00;;;;;;5074713;28;20395;-72
2023/11/19 11:05:52;;;;;;;6.57;1.23;;;14.70;1.00;;;;;;5074380;28;20404;-73
2023/11/19 11:08:21;;;;;;;15.53;2.37;;;14.70;1.00;;;;;;5079388;28;20418;-73
2023/11/19 11:10:57;;;;;;;169.47;13.97;;;14.70;1.00;;;;;;5068850;28;20468;-73
2023/11/19 11:13:58;;;;;;;3.10;1.20;;;14.60;1.00;;;;;;5081157;28;20437;-77
2023/11/19 11:16:34;;;;;;;6.73;1.33;;;14.60;1.00;;;;;;5074484;28;20448;-76
2023/11/19 11:22:23;;;;;;;17.13;1.67;;;14.50;1.00;;;;;;5054421;28;20447;-78
2023/11/19 11:25:00;;;;;;;6.40;1.30;;;14.40;1.00;;;;;;5054583;28;20370;-81
2023/11/19 11:28:15;;;;;;;1.47;0.50;;;14.60;1.00;;;;;;5074815;28;20406;-81
2023/11/19 11:31:23;;;;;;;26.90;3.00;;;14.60;1.00;;;;;;4990967;28;21086;-81
2023/11/19 11:34:22;;;;;;;6.03;1.30;;;14.70;1.00;;;;;;5005746;28;20437;-77
2023/11/19 11:36:57;;;;;;;17.53;2.50;;;;;;;;;;5011091;28;20513;-86
2023/11/19 11:42:57;;;;;;;5.87;1.00;;;14.70;1.00;;;;;;5012291;28;20908;-75
2023/11/19 11:45:45;;;;;;;7.43;1.87;;;14.80;1.00;;;;;;5012695;28;20381;-74
2023/11/19 11:48:20;;;;;;;7.87;1.20;;;14.70;1.00;;;;;;5014100;28;20428;-74
2023/11/19 11:50:48;;;;;;;8.37;1.50;;;;;;;;;;5017780;28;20427;-75
2023/11/19 11:53:22;;;;;;;6.77;1.57;;;14.80;1.00;;;;;;4991109;28;20633;-75
2023/11/19 11:59:23;;;;;;;4.30;1.00;;;15.20;1.00;;;;;;4992218;28;20938;-79
2023/11/19 12:05:10;;;;;;;5.80;1.47;;;15.30;1.00;;;;;;5000901;28;20397;-81
2023/11/19 12:11:03;;;;;;;24.63;2.53;;;;;;;;;;5074206;28;20964;-77
2023/11/19 12:16:51;;;;;;;9.00;1.30;;;15.30;1.00;;;;;;5063401;28;20432;-79
2023/11/19 12:26:01;;;;;;;10.43;1.77;;;15.10;1.00;;;;;;5073636;28;20446;-81
2023/11/19 12:29:06;;;;;;;13.90;2.20;;;15.00;1.00;;;;;;5073693;28;20509;-74
2023/11/19 12:31:53;;;;;;;114.63;8.17;;;15.00;1.00;;;;;;5067149;28;20188;-74
2023/11/19 12:34:27;;;;;;;2.80;1.27;;;14.90;1.00;;;;;;5057235;28;20432;-75
2023/11/19 12:36:57;;;;;;;10.20;1.50;;;15.00;1.00;;;;;;5080248;28;20444;-75
2023/11/19 12:39:30;;;;;;;5.23;1.40;;;15.00;1.00;;;;;;5090251;28;20947;-74
2023/11/19 12:41:59;;;;;;;9.27;1.40;;;;;;;;;;5094148;28;20729;-74
2023/11/19 12:44:25;;;;;;;8.63;1.10;;;15.10;1.00;;;;;;5083641;28;20388;-74
2023/11/19 12:47:07;;;;;;;18.67;2.87;;;15.10;1.00;;;;;;5081901;28;20517;-75
2023/11/19 12:49:33;;;;;;;181.97;81.70;;;15.10;1.00;;;;;;5067304;28;20466;-74
2023/11/19 12:52:00;;;;;;;112.50;43.07;;;15.10;1.00;;;;;;5082713;28;20966;-73
2023/11/19 12:54:37;;;;;;;18.97;2.83;;;15.20;1.00;;;;;;5075212;28;20917;-72
2023/11/19 12:57:04;;;;;;;10.43;1.43;;;15.20;1.00;;;;;;5089160;28;20486;-73
2023/11/19 12:59:30;;;;;;;14.13;2.43;;;15.30;1.00;;;;;;5089717;28;20548;-73
2023/11/19 13:02:05;;;;;;;12.90;1.50;;;;;;;;;;5089086;28;20512;-73
2023/11/19 13:14:46;;;;;;;11.90;1.77;;;;;;;;;;5074143;28;20492;-85
2023/11/19 13:17:22;;;;;;;15.00;2.00;;;;;;;;;;5058399;28;20800;-84
2023/11/19 13:20:27;;;;;;;8.47;1.43;;;14.90;1.00;;;;;;5060939;28;20420;-84
2023/11/19 13:23:03;;;;;;;7.63;1.47;;;;;;;;;;5064951;28;20918;-85
2023/11/19 13:26:03;;;;;;;10.40;1.40;;;14.90;1.00;;;;;;5062725;28;20425;-83
2023/11/19 13:28:51;;;;;;;4.37;1.50;;;14.90;1.00;;;;;;5074375;28;20795;-84
2023/11/19 13:31:28;;;;;;;7.47;1.20;;;;;;;;;;5066682;28;20555;-83
2023/11/19 13:33:54;;;;;;;6.00;1.40;;;;;;;;;;5081406;28;21075;-82
2023/11/19 13:37:14;;;;;;;9.67;1.40;;;14.80;1.00;;;;;;5073052;28;20471;-84
2023/11/19 13:46:25;;;;;;;2.97;0.93;;;;;;;;;;5075929;28;20805;-83
2023/11/19 13:52:27;;;;;;;5.47;1.20;;;;;;;;;;5065053;28;20393;-83
2023/11/19 13:55:32;;;;;;;7.20;1.60;;;14.80;1.00;;;;;;5072396;28;20433;-83
2023/11/19 13:58:03;;;;;;;8.60;1.73;;;14.90;1.00;;;;;;5073662;28;20411;-84
2023/11/19 14:04:03;;;;;;;5.17;1.20;;;14.90;1.00;;;;;;5069340;28;20375;-84
2023/11/19 14:09:50;;;;;;;178.87;16.70;;;15.00;1.00;;;;;;5066851;28;20465;-82
2023/11/19 14:28:11;;;;;;;15.53;2.50;;;;;;;;;;5077226;28;20404;-83
2023/11/19 14:31:03;;;;;;;6.23;1.13;;;14.90;1.00;;;;;;5073487;28;20421;-84
2023/11/19 14:33:29;;;;;;;10.67;1.80;;;;;;;;;;5074997;28;20508;-83
2023/11/19 14:36:39;;;;;;;4.40;1.13;;;14.60;1.00;;;;;;5078257;28;20454;-80
2023/11/19 14:39:57;;;;;;;11.60;1.97;;;14.60;1.00;;;;;;5078876;28;20790;-80
2023/11/19 14:43:11;;;;;;;10.27;1.80;;;14.40;1.00;;;;;;5060419;28;20442;-81
2023/11/19 14:46:32;;;;;;;12.03;1.77;;;14.40;1.00;;;;;;5070292;28;20428;-84
2023/11/19 14:52:35;;;;;;;3.47;0.90;;;;;;;;;;5074025;28;20410;-80
2023/11/19 14:59:08;;;;;;;11.63;1.23;;;14.30;1.00;;;;;;5070395;28;20435;-81
2023/11/19 15:01:34;;;;;;;7.20;1.47;;;14.30;1.00;;;;;;5082218;28;20422;-80
2023/11/19 15:04:15;;;;;;;9.13;1.23;;;14.20;1.00;;;;;;5069406;28;20413;-80
2023/11/19 15:06:45;;;;;;;11.70;1.63;;;14.20;1.00;;;;;;5077184;28;20179;-80
2023/11/19 15:09:51;;;;;;;20.40;2.57;;;14.10;1.00;;;;;;5069137;28;20405;-77
2023/11/19 15:12:17;;;;;;;12.90;2.07;;;;;;;;;;5070779;28;20489;-83
2023/11/19 15:14:44;;;;;;;3.73;1.20;;;;;;;;;;5084033;28;20437;-84
2023/11/19 15:17:45;;;;;;;7.10;1.23;;;13.90;1.00;;;;;;5060772;28;20490;-83
2023/11/19 15:23:32;;;;;;;7.73;1.83;;;13.80;1.00;;;;;;5067610;28;20910;-85
2023/11/19 15:26:15;;;;;;;13.27;1.57;;;;;;;;;;5073930;28;20464;-84
2023/11/19 15:29:21;;;;;;;7.13;1.67;;;13.70;1.00;;;;;;5068103;28;20633;-80
2023/11/19 15:39:09;;;;;;;4.23;1.40;;;13.40;1.00;;;;;;5072990;28;20439;-80
2023/11/19 15:41:45;;;;;;;11.33;2.07;;;13.40;1.00;;;;;;5074493;28;20944;-81
2023/11/19 15:44:11;;;;;;;8.80;1.50;;;;;;;;;;5072302;28;22323;-83
2023/11/19 15:47:09;;;;;;;4.70;1.30;;;13.30;1.00;;;;;;5070879;28;20928;-82
2023/11/19 15:49:36;;;;;;;8.07;1.30;;;13.20;1.00;;;;;;5066804;28;20422;-83
2023/11/19 15:52:57;;;;;;;14.67;2.10;;;13.20;1.00;;;;;;5089549;28;20553;-83
2023/11/19 15:55:22;;;;;;;8.73;1.63;;;13.20;1.00;;;;;;5070362;28;20425;-82
2023/11/19 15:58:04;;;;;;;8.60;1.90;;;;;;;;;;5070095;28;20434;-82
2023/11/19 16:00:33;;;;;;;42.00;4.83;;;;;;;;;;5070573;28;20233;-78
2023/11/19 16:02:59;;;;;;;13.53;1.47;;;;;;;;;;5056231;28;20964;-81
2023/11/19 16:08:48;;;;;;;57.87;5.97;;;;;;;;;;5069161;28;20389;-80
2023/11/19 16:11:14;;;;;;;7.03;1.43;;;;;;;;;;5070781;28;20507;-80
2023/11/19 16:13:40;;;;;;;7.50;1.50;;;;;;;;;;5065510;28;20466;-81
2023/11/19 16:16:15;;;;;;;6.53;1.33;;;;;;;;;;5069020;28;20424;-86
2023/11/19 16:22:44;;;;;;;21.33;2.97;;;12.90;1.00;;;;;;5074042;28;20424;-81
2023/11/19 16:25:16;;;;;;;11.73;2.20;;;;;;;;;;5063640;28;20482;-82
2023/11/19 16:28:23;;;;;;;10.37;1.20;;;12.70;1.00;;;;;;5079273;28;20420;-82
2023/11/19 16:31:21;;;;;;;3.83;1.37;;;12.70;1.00;;;;;;5083629;28;20412;-82
2023/11/19 16:37:09;;;;;;;9.17;2.30;;;12.50;1.00;;;;;;5077836;28;20571;-81
2023/11/19 16:42:57;;;;;;;6.93;1.30;;;12.10;1.00;;;;;;5077988;28;20864;-79
2023/11/19 16:45:24;;;;;;;10.43;1.70;;;;;;;;;;5078661;28;20508;-78
2023/11/19 16:47:50;;;;;;;5.67;1.20;;;12.10;1.00;;;;;;5090403;28;20420;-76
2023/11/19 16:54:33;;;;;;;6.17;1.10;;;12.20;1.00;;;;;;5072920;28;20540;-77
2023/11/19 17:00:20;;;;;;;13.97;2.03;;;12.30;1.00;;;;;;5061569;28;20549;-79
2023/11/19 17:02:51;;;;;;;11.53;1.63;;;12.40;1.00;;;;;;5070649;28;20935;-78
2023/11/19 17:05:51;;;;;;;8.03;1.10;;;12.40;1.00;;;;;;5070567;28;20179;-79
2023/11/19 17:08:51;;;;;;;3.70;1.00;;;12.40;1.00;;;;;;5053140;28;20881;-81
2023/11/19 17:12:09;;;;;;;1.87;0.90;;;12.50;1.00;;;;;;5085290;28;20401;-80
2023/11/19 17:18:09;;;;;;;7.57;1.23;;;;;;;;;;5070464;28;20443;-81
2023/11/19 17:20:37;;;;;;;8.27;1.40;;;;;;;;;;5093121;28;20780;-80
2023/11/19 17:23:51;;;;;;;7.50;1.50;;;12.30;1.00;;;;;;5083347;28;20412;-82
2023/11/19 17:29:38;;;;;;;11.20;1.40;;;12.40;1.00;;;;;;5067028;28;20400;-80
2023/11/19 17:32:33;;;;;;;8.83;0.90;;;12.40;1.00;;;;;;5070685;28;20433;-78
2023/11/19 17:35:51;;;;;;;5.13;1.30;;;12.30;1.00;;;;;;5076988;28;20175;-78
2023/11/19 17:38:45;;;;;;;11.83;1.23;;;12.30;1.00;;;;;;5072242;28;20469;-77
2023/11/19 17:48:15;;;;;;;4.40;1.40;;;12.20;1.00;;;;;;5089786;28;20399;-80
2023/11/19 17:50:55;;;;;;;4.53;1.30;;;12.20;1.00;;;;;;5065272;28;20528;-80
2023/11/19 17:53:51;;;;;;;8.93;1.30;;;12.10;1.00;;;;;;5076295;28;20453;-80
2023/11/19 18:03:51;;;;;;;9.17;1.30;;;11.80;1.00;;;;;;5059732;28;20436;-80
2023/11/19 18:06:21;;;;;;;8.27;2.63;;;;;;;;;;5075617;28;20433;-82
2023/11/19 18:09:21;;;;;;;12.97;1.83;;;11.80;1.00;;;;;;5085673;28;20417;-82
2023/11/19 18:12:21;;;;;;;5.57;1.00;;;11.80;1.00;;;;;;5093434;28;20478;-83
2023/11/19 18:18:09;;;;;;;7.33;1.60;;;11.70;1.00;;;;;;5091062;28;20514;-82
2023/11/19 18:21:21;;;;;;;4.47;1.40;;;11.70;1.00;;;;;;5074060;28;20438;-83
2023/11/19 18:27:21;;;;;;;5.13;1.00;;;11.60;1.00;;;;;;5093932;28;20915;-81
2023/11/19 18:30:21;;;;;;;120.77;9.73;;;11.60;1.00;;;;;;5069805;28;20421;-81
2023/11/19 18:32:47;;;;;;;11.40;1.73;;;;;;;;;;5074072;28;20425;-81
2023/11/19 18:35:51;;;;;;;8.83;1.53;;;11.60;1.00;;;;;;5077540;28;20417;-80
2023/11/19 18:38:51;;;;;;;2.90;0.90;;;11.50;1.00;;;;;;5080274;28;20497;-80
2023/11/19 18:41:51;;;;;;;6.47;2.00;;;11.50;1.00;;;;;;5083475;28;20743;-80